createdAt,value
2022-10-24T00:00:43.950Z,13.90
2022-10-24T00:03:29.516Z,13.90
2022-10-24T00:06:19.918Z,13.90
2022-10-24T00:09:09.458Z,13.90
2022-10-24T00:11:54.647Z,13.80
2022-10-24T00:14:42.312Z,13.80
2022-10-24T00:17:35.414Z,13.70
2022-10-24T00:20:20.824Z,13.60
2022-10-24T00:23:06.542Z,13.60
2022-10-24T00:25:54.304Z,13.60
2022-10-24T00:28:43.418Z,13.60
2022-10-24T00:31:29.131Z,13.70
2022-10-24T00:34:15.019Z,13.70
2022-10-24T00:37:01.693Z,13.70
2022-10-24T00:39:47.424Z,13.70
2022-10-24T00:42:36.019Z,13.70
2022-10-24T00:45:49.662Z,13.60
2022-10-24T00:48:48.396Z,13.60
2022-10-24T00:51:34.384Z,13.50
2022-10-24T00:54:20.659Z,13.50
2022-10-24T00:57:16.672Z,13.40
2022-10-24T01:00:13.528Z,13.40
2022-10-24T01:03:00.466Z,13.30
2022-10-24T01:06:05.765Z,13.20
2022-10-24T01:09:07.839Z,13.10
2022-10-24T01:12:00.494Z,13.00
2022-10-24T01:14:53.399Z,12.90
2022-10-24T01:18:03.008Z,12.90
2022-10-24T01:20:50.424Z,12.80
2022-10-24T01:24:01.093Z,12.90
2022-10-24T01:27:30.918Z,13.10
2022-10-24T01:30:17.539Z,13.20
2022-10-24T01:33:21.334Z,13.40
2022-10-24T01:36:25.302Z,13.40
2022-10-24T01:39:17.001Z,13.40
2022-10-24T01:42:11.537Z,13.40
2022-10-24T01:44:59.020Z,13.40
2022-10-24T01:47:51.090Z,13.30
2022-10-24T01:50:38.793Z,13.30
2022-10-24T01:53:28.787Z,13.20
2022-10-24T01:56:14.881Z,13.10
2022-10-24T01:59:06.502Z,13.00
2022-10-24T02:01:54.585Z,12.90
2022-10-24T02:04:48.199Z,12.70
2022-10-24T02:07:37.135Z,12.60
2022-10-24T02:10:28.996Z,12.50
2022-10-24T02:13:34.348Z,12.40
2022-10-24T02:16:20.888Z,12.40
2022-10-24T02:19:07.014Z,12.30
2022-10-24T02:21:55.476Z,12.20
2022-10-24T02:24:49.752Z,12.20
2022-10-24T02:27:50.657Z,12.20
2022-10-24T02:30:44.786Z,12.10
2022-10-24T02:33:39.778Z,12.00
2022-10-24T02:36:34.091Z,11.90
2022-10-24T02:39:20.285Z,12.00
2022-10-24T02:42:14.294Z,12.00
2022-10-24T02:45:00.519Z,12.10
2022-10-24T02:47:50.790Z,11.90
2022-10-24T02:50:41.872Z,11.90
2022-10-24T02:53:30.797Z,11.90
2022-10-24T02:56:23.755Z,11.90
2022-10-24T02:59:11.969Z,12.00
2022-10-24T03:01:57.871Z,11.90
2022-10-24T03:04:43.500Z,11.80
2022-10-24T03:10:19.895Z,11.80
2022-10-24T03:13:07.609Z,11.80
2022-10-24T03:15:54.911Z,11.90
2022-10-24T03:18:47.605Z,11.90
2022-10-24T03:21:33.651Z,11.90
2022-10-24T03:24:26.987Z,11.90
2022-10-24T03:27:23.178Z,12.00
2022-10-24T03:30:14.995Z,11.80
2022-10-24T03:33:02.957Z,11.80
2022-10-24T03:35:55.277Z,11.80
2022-10-24T03:38:41.100Z,11.70
2022-10-24T03:41:29.123Z,11.80
2022-10-24T03:44:16.512Z,11.80
2022-10-24T03:47:09.497Z,11.70
2022-10-24T03:49:55.548Z,11.80
2022-10-24T03:52:41.060Z,11.60
2022-10-24T03:55:35.957Z,11.70
2022-10-24T03:58:21.550Z,11.70
2022-10-24T04:01:10.298Z,11.70
2022-10-24T04:03:55.989Z,11.70
2022-10-24T04:06:42.509Z,11.70
2022-10-24T04:09:28.354Z,11.70
2022-10-24T04:12:14.856Z,11.80
2022-10-24T04:15:04.902Z,11.60
2022-10-24T04:17:51.115Z,11.70
2022-10-24T04:20:36.849Z,11.70
2022-10-24T04:23:22.903Z,11.60
2022-10-24T04:26:14.075Z,11.60
2022-10-24T04:29:01.509Z,11.50
2022-10-24T04:31:47.331Z,11.60
2022-10-24T04:34:36.286Z,11.60
2022-10-24T04:37:21.774Z,11.50
2022-10-24T04:40:16.743Z,11.40
2022-10-24T04:43:09.224Z,11.60
2022-10-24T04:45:59.541Z,11.50
2022-10-24T04:48:45.027Z,11.60
2022-10-24T04:51:30.820Z,11.50
2022-10-24T04:54:19.074Z,11.40
2022-10-24T04:57:04.429Z,11.50
2022-10-24T04:59:49.843Z,11.40
2022-10-24T05:02:37.622Z,11.30
2022-10-24T05:05:23.573Z,11.30
2022-10-24T05:08:11.935Z,11.40
2022-10-24T05:10:59.955Z,11.40
2022-10-24T05:13:45.441Z,11.30
2022-10-24T05:16:30.919Z,11.30
2022-10-24T05:19:17.378Z,11.40
2022-10-24T05:22:10.842Z,11.40
2022-10-24T05:24:57.136Z,11.50
2022-10-24T05:27:45.523Z,11.50
2022-10-24T05:30:33.819Z,11.40
2022-10-24T05:33:23.493Z,11.50
2022-10-24T05:36:09.705Z,11.50
2022-10-24T05:38:56.302Z,11.40
2022-10-24T05:41:44.749Z,11.40
2022-10-24T05:44:33.415Z,11.50
2022-10-24T05:47:22.737Z,11.50
2022-10-24T05:50:11.273Z,11.40
2022-10-24T05:52:59.923Z,11.30
2022-10-24T05:55:46.383Z,11.40
2022-10-24T05:58:33.408Z,11.40
2022-10-24T06:01:19.142Z,11.20
2022-10-24T06:04:13.795Z,11.30
2022-10-24T06:07:02.291Z,11.40
2022-10-24T06:09:48.438Z,11.40
2022-10-24T06:12:36.386Z,11.50
2022-10-24T06:15:23.938Z,11.40
2022-10-24T06:18:16.187Z,11.50
2022-10-24T06:21:03.802Z,11.60
2022-10-24T06:23:51.836Z,11.50
2022-10-24T06:26:37.859Z,11.50
2022-10-24T06:29:27.716Z,11.60
2022-10-24T06:32:18.430Z,11.70
2022-10-24T06:35:04.697Z,11.70
2022-10-24T06:37:50.688Z,11.90
2022-10-24T06:40:39.822Z,12.00
2022-10-24T06:43:25.664Z,12.00
2022-10-24T06:46:16.572Z,12.20
2022-10-24T06:49:08.377Z,12.30
2022-10-24T06:52:00.469Z,12.30
2022-10-24T06:54:46.120Z,12.40
2022-10-24T06:57:31.904Z,12.40
2022-10-24T07:00:17.524Z,12.50
2022-10-24T07:03:07.010Z,12.60
2022-10-24T07:05:53.531Z,12.60
2022-10-24T07:08:39.448Z,12.80
2022-10-24T07:11:31.799Z,12.90
2022-10-24T07:14:17.326Z,12.90
2022-10-24T07:17:09.122Z,12.90
2022-10-24T07:19:55.090Z,13.00
2022-10-24T07:22:45.368Z,13.00
2022-10-24T07:25:33.273Z,13.20
2022-10-24T07:28:18.939Z,13.50
2022-10-24T07:31:14.988Z,13.50
2022-10-24T07:34:06.440Z,13.70
2022-10-24T07:36:51.669Z,13.60
2022-10-24T07:39:37.520Z,13.60
2022-10-24T07:42:23.687Z,13.90
2022-10-24T07:45:10.433Z,14.10
2022-10-24T07:47:59.532Z,14.20
2022-10-24T07:50:47.459Z,14.30
2022-10-24T07:53:33.276Z,14.30
2022-10-24T07:56:19.275Z,14.60
2022-10-24T07:59:29.885Z,14.60
2022-10-24T08:02:20.295Z,14.60
2022-10-24T08:05:12.377Z,14.80
2022-10-24T08:08:12.067Z,14.70
2022-10-24T08:11:24.862Z,14.90
2022-10-24T08:14:17.442Z,15.10
2022-10-24T08:17:11.798Z,15.40
2022-10-24T08:19:57.269Z,15.40
2022-10-24T08:22:46.439Z,15.50
2022-10-24T08:25:34.463Z,15.50
2022-10-24T08:28:23.584Z,15.70
2022-10-24T08:31:13.336Z,15.80
2022-10-24T08:33:59.468Z,15.90
2022-10-24T08:36:47.014Z,16.10
2022-10-24T08:39:33.277Z,16.20
2022-10-24T08:42:19.636Z,16.40
2022-10-24T08:45:30.151Z,16.50
2022-10-24T08:48:22.882Z,16.70
2022-10-24T08:51:34.596Z,16.80
2022-10-24T08:54:29.227Z,17.00
2022-10-24T08:57:25.042Z,17.00
2022-10-24T09:00:27.283Z,17.10
2022-10-24T09:03:31.409Z,17.30
2022-10-24T09:06:28.254Z,17.30
2022-10-24T09:09:28.176Z,17.40
2022-10-24T09:12:19.023Z,17.30
2022-10-24T09:15:19.932Z,17.40
2022-10-24T09:18:20.535Z,17.60
2022-10-24T09:21:14.247Z,17.80
2022-10-24T09:24:00.649Z,18.00
2022-10-24T09:26:49.819Z,17.90
2022-10-24T09:29:38.280Z,18.00
2022-10-24T09:32:27.545Z,17.90
2022-10-24T09:35:23.580Z,17.90
2022-10-24T09:38:36.427Z,18.00
2022-10-24T09:41:29.083Z,18.10
2022-10-24T09:44:31.792Z,18.30
2022-10-24T09:47:28.618Z,18.30
2022-10-24T09:50:24.194Z,18.50
2022-10-24T09:53:36.076Z,18.50
2022-10-24T09:56:21.756Z,18.60
2022-10-24T09:59:28.069Z,18.70
2022-10-24T10:02:34.418Z,18.80
2022-10-24T10:05:21.214Z,19.00
2022-10-24T10:08:30.554Z,19.10
2022-10-24T10:11:30.935Z,19.20
2022-10-24T10:14:28.800Z,19.30
2022-10-24T10:17:26.198Z,19.50
2022-10-24T10:20:35.129Z,19.50
2022-10-24T10:23:31.586Z,19.60
2022-10-24T10:26:44.834Z,19.60
2022-10-24T10:29:30.152Z,19.60
2022-10-24T10:32:40.710Z,19.60
2022-10-24T10:36:02.002Z,19.70
2022-10-24T10:38:51.943Z,19.70
2022-10-24T10:41:50.990Z,19.60
2022-10-24T10:44:46.627Z,19.60
2022-10-24T10:47:51.263Z,19.60
2022-10-24T10:50:47.864Z,19.60
2022-10-24T10:53:54.934Z,19.60
2022-10-24T10:56:52.117Z,19.60
2022-10-24T11:00:07.932Z,19.60
2022-10-24T11:03:03.793Z,19.70
2022-10-24T11:05:57.129Z,19.60
2022-10-24T11:08:48.541Z,19.60
2022-10-24T11:11:48.967Z,19.70
2022-10-24T11:14:39.567Z,19.80
2022-10-24T11:17:54.866Z,19.70
2022-10-24T11:20:43.158Z,19.90
2022-10-24T11:23:40.451Z,19.80
2022-10-24T11:26:43.603Z,19.90
2022-10-24T11:29:51.470Z,20.00
2022-10-24T11:32:53.639Z,19.90
2022-10-24T11:35:44.822Z,20.20
2022-10-24T11:38:32.988Z,20.00
2022-10-24T11:41:53.442Z,20.00
2022-10-24T11:45:27.461Z,20.00
2022-10-24T11:48:37.269Z,19.90
2022-10-24T11:51:42.667Z,19.80
2022-10-24T11:54:55.011Z,20.00
2022-10-24T11:57:48.458Z,19.90
2022-10-24T12:01:17.178Z,20.10
2022-10-24T12:04:22.061Z,20.20
2022-10-24T12:07:52.879Z,20.10
2022-10-24T12:10:56.974Z,20.10
2022-10-24T12:17:37.987Z,20.50
2022-10-24T12:20:26.357Z,20.80
2022-10-24T12:23:31.594Z,20.60
2022-10-24T12:26:26.672Z,20.80
2022-10-24T12:29:23.831Z,20.80
2022-10-24T12:32:36.738Z,20.50
2022-10-24T12:35:31.328Z,20.60
2022-10-24T12:38:38.380Z,20.60
2022-10-24T12:41:35.456Z,20.70
2022-10-24T12:44:34.192Z,20.70
2022-10-24T12:47:33.602Z,20.80
2022-10-24T12:50:29.332Z,21.10
2022-10-24T12:53:30.534Z,21.10
2022-10-24T12:59:28.837Z,21.00
2022-10-24T13:02:20.779Z,21.50
2022-10-24T13:05:18.920Z,22.80
2022-10-24T13:08:21.837Z,24.50
2022-10-24T13:11:28.819Z,24.00
2022-10-24T13:14:36.460Z,23.90
2022-10-24T13:18:09.282Z,23.50
2022-10-24T13:21:17.478Z,23.10
2022-10-24T13:24:20.087Z,22.30
2022-10-24T13:27:12.877Z,22.30
2022-10-24T13:30:04.032Z,22.00
2022-10-24T13:32:50.212Z,21.70
2022-10-24T13:35:40.591Z,21.30
2022-10-24T13:38:29.325Z,20.70
2022-10-24T13:41:33.799Z,20.70
2022-10-24T13:44:25.488Z,20.30
2022-10-24T13:47:21.367Z,20.20
2022-10-24T13:50:19.791Z,20.20
2022-10-24T13:53:28.290Z,20.00
2022-10-24T13:56:19.414Z,20.00
2022-10-24T13:59:39.980Z,19.80
2022-10-24T14:02:32.303Z,19.80
2022-10-24T14:05:30.709Z,19.80
2022-10-24T14:08:32.361Z,19.70
2022-10-24T14:11:23.568Z,19.80
2022-10-24T14:14:28.139Z,19.70
2022-10-24T14:17:26.024Z,19.70
2022-10-24T14:20:28.739Z,19.60
2022-10-24T14:23:28.284Z,19.40
2022-10-24T14:26:20.116Z,19.40
2022-10-24T14:29:05.995Z,19.40
2022-10-24T14:32:17.415Z,19.30
2022-10-24T14:35:05.938Z,19.40
2022-10-24T14:37:51.373Z,19.50
2022-10-24T14:40:45.544Z,19.40
2022-10-24T14:43:34.232Z,19.40
2022-10-24T14:46:41.445Z,19.40
2022-10-24T14:49:37.062Z,19.20
2022-10-24T14:52:44.782Z,19.10
2022-10-24T14:55:33.611Z,19.00
2022-10-24T14:58:29.713Z,18.90
2022-10-24T15:01:23.308Z,18.70
2022-10-24T15:04:33.217Z,18.70
2022-10-24T15:07:23.601Z,18.50
2022-10-24T15:10:13.317Z,18.50
2022-10-24T15:13:23.549Z,18.40
2022-10-24T15:16:21.167Z,18.30
2022-10-24T15:19:18.627Z,18.10
2022-10-24T15:22:06.731Z,18.00
2022-10-24T15:24:55.523Z,17.90
2022-10-24T15:27:46.313Z,17.80
2022-10-24T15:30:38.749Z,17.70
2022-10-24T15:33:32.308Z,17.50
2022-10-24T15:36:34.712Z,17.40
2022-10-24T15:39:25.208Z,17.30
2022-10-24T15:42:12.053Z,17.20
2022-10-24T15:44:57.699Z,17.10
2022-10-24T15:47:45.121Z,17.10
2022-10-24T15:50:30.576Z,17.00
2022-10-24T15:53:24.063Z,17.00
2022-10-24T15:56:18.514Z,16.90
2022-10-24T15:59:13.718Z,16.90
2022-10-24T16:02:04.795Z,16.80
2022-10-24T16:04:53.224Z,16.80
2022-10-24T16:07:38.630Z,16.80
2022-10-24T16:10:24.519Z,16.80
2022-10-24T16:13:13.974Z,16.70
2022-10-24T16:15:59.844Z,16.70
2022-10-24T16:18:52.056Z,16.60
2022-10-24T16:21:38.854Z,16.50
2022-10-24T16:24:28.672Z,16.40
2022-10-24T16:27:16.596Z,16.40
2022-10-24T16:30:02.226Z,16.40
2022-10-24T16:32:49.210Z,16.40
2022-10-24T16:35:40.682Z,16.40
2022-10-24T16:38:35.379Z,16.40
2022-10-24T16:41:23.393Z,16.30
2022-10-24T16:44:09.137Z,16.30
2022-10-24T16:46:54.804Z,16.30
2022-10-24T16:49:40.732Z,16.40
2022-10-24T16:52:29.134Z,16.20
2022-10-24T16:55:15.287Z,16.30
2022-10-24T16:58:03.652Z,16.20
2022-10-24T17:00:49.177Z,16.20
2022-10-24T17:03:37.151Z,16.30
2022-10-24T17:06:25.319Z,16.20
2022-10-24T17:09:17.386Z,16.20
2022-10-24T17:12:04.290Z,16.20
2022-10-24T17:14:49.585Z,16.10
2022-10-24T17:17:35.870Z,16.10
2022-10-24T17:20:21.287Z,16.10
2022-10-24T17:23:14.769Z,16.00
2022-10-24T17:26:00.709Z,16.10
2022-10-24T17:28:46.715Z,16.10
2022-10-24T17:31:32.599Z,16.00
2022-10-24T17:34:18.193Z,15.90
2022-10-24T17:37:21.238Z,16.00
2022-10-24T17:40:20.352Z,15.90
2022-10-24T17:43:23.743Z,15.90
2022-10-24T17:46:13.138Z,15.80
2022-10-24T17:48:58.925Z,15.80
2022-10-24T17:51:47.191Z,15.70
2022-10-24T17:54:36.657Z,15.70
2022-10-24T17:57:29.213Z,15.60
2022-10-24T18:00:23.291Z,15.50
2022-10-24T18:03:15.523Z,15.50
2022-10-24T18:06:07.042Z,15.50
2022-10-24T18:08:54.258Z,15.40
2022-10-24T18:11:40.321Z,15.50
2022-10-24T18:14:26.503Z,15.40
2022-10-24T18:17:18.852Z,15.30
2022-10-24T18:20:10.172Z,15.20
2022-10-24T18:23:01.458Z,15.10
2022-10-24T18:25:47.309Z,15.10
2022-10-24T18:28:39.937Z,15.10
2022-10-24T18:31:28.411Z,15.10
2022-10-24T18:34:19.917Z,14.90
2022-10-24T18:37:12.646Z,14.80
2022-10-24T18:39:58.900Z,14.80
2022-10-24T18:42:52.520Z,14.80
2022-10-24T18:45:38.885Z,14.90
2022-10-24T18:48:25.469Z,14.90
2022-10-24T18:51:27.429Z,15.10
2022-10-24T18:54:20.724Z,15.10
2022-10-24T18:57:23.935Z,15.20
2022-10-24T19:00:20.137Z,15.10
2022-10-24T19:03:36.892Z,15.20
2022-10-24T19:06:26.024Z,15.20
2022-10-24T19:09:20.895Z,15.20
2022-10-24T19:12:07.578Z,15.20
2022-10-24T19:14:55.245Z,15.20
2022-10-24T19:17:43.436Z,15.20
2022-10-24T19:20:32.333Z,15.30
2022-10-24T19:23:24.836Z,15.20
2022-10-24T19:26:13.047Z,15.30
2022-10-24T19:29:03.573Z,15.30
2022-10-24T19:31:59.014Z,15.30
2022-10-24T19:34:45.302Z,15.30
2022-10-24T19:37:31.307Z,15.40
2022-10-24T19:40:17.509Z,15.40
2022-10-24T19:43:07.798Z,15.20
2022-10-24T19:46:18.405Z,15.10
2022-10-24T19:49:12.445Z,15.10
2022-10-24T19:52:04.081Z,15.00
2022-10-24T19:54:52.643Z,14.90
2022-10-24T19:57:39.310Z,14.70
2022-10-24T20:00:26.106Z,14.90
2022-10-24T20:03:18.422Z,14.90
2022-10-24T20:06:04.740Z,14.90
2022-10-24T20:08:50.413Z,15.00
2022-10-24T20:11:36.206Z,15.00
2022-10-24T20:14:24.599Z,15.10
2022-10-24T20:17:17.252Z,15.10
2022-10-24T20:20:04.949Z,15.10
2022-10-24T20:22:50.640Z,15.20
2022-10-24T20:25:39.274Z,15.20
2022-10-24T20:28:25.236Z,15.20
2022-10-24T20:31:35.600Z,15.10
2022-10-24T20:34:21.763Z,15.30
2022-10-24T20:37:09.200Z,15.20
2022-10-24T20:40:01.179Z,15.10
2022-10-24T20:42:49.575Z,15.00
2022-10-24T20:45:40.353Z,14.90
2022-10-24T20:48:25.929Z,14.80
2022-10-24T20:51:22.251Z,14.70
2022-10-24T20:54:09.402Z,14.60
2022-10-24T20:56:56.580Z,14.60
2022-10-24T20:59:46.772Z,14.80
2022-10-24T21:02:36.706Z,14.70
2022-10-24T21:05:25.035Z,14.60
2022-10-24T21:08:10.952Z,14.50
2022-10-24T21:10:59.427Z,14.40
2022-10-24T21:13:46.484Z,14.30
2022-10-24T21:16:33.433Z,14.20
2022-10-24T21:19:19.322Z,14.10
2022-10-24T21:22:05.224Z,14.10
2022-10-24T21:24:50.792Z,14.00
2022-10-24T21:27:44.616Z,13.90
2022-10-24T21:30:30.213Z,13.80
2022-10-24T21:33:16.223Z,13.70
2022-10-24T21:36:07.610Z,13.70
2022-10-24T21:38:57.904Z,13.60
2022-10-24T21:41:46.208Z,13.60
2022-10-24T21:44:33.739Z,13.60
2022-10-24T21:47:22.824Z,13.50
2022-10-24T21:50:15.580Z,13.50
2022-10-24T21:53:04.033Z,13.50
2022-10-24T21:55:52.217Z,13.60
2022-10-24T21:58:38.967Z,13.60
2022-10-24T22:01:26.358Z,13.60
2022-10-24T22:04:15.985Z,13.70
2022-10-24T22:07:08.511Z,13.60
2022-10-24T22:09:56.756Z,13.70
2022-10-24T22:12:45.522Z,13.70
2022-10-24T22:15:30.834Z,13.70
2022-10-24T22:18:16.708Z,13.70
2022-10-24T22:21:07.610Z,13.90
2022-10-24T22:23:56.666Z,14.00
2022-10-24T22:26:47.642Z,14.10
2022-10-24T22:29:33.280Z,14.20
2022-10-24T22:32:19.956Z,14.10
2022-10-24T22:35:06.769Z,14.20
2022-10-24T22:37:53.514Z,14.30
2022-10-24T22:40:39.604Z,14.30
2022-10-24T22:43:28.616Z,14.10
2022-10-24T22:46:32.730Z,14.00
2022-10-24T22:49:52.411Z,13.80
2022-10-24T22:52:37.910Z,13.70
2022-10-24T22:55:46.828Z,13.60
2022-10-24T22:58:33.001Z,13.40
2022-10-24T23:01:40.677Z,13.30
2022-10-24T23:04:59.063Z,13.10
2022-10-24T23:07:53.885Z,13.00
2022-10-24T23:10:40.046Z,13.00
2022-10-24T23:13:25.705Z,12.90
2022-10-24T23:16:17.274Z,12.80
2022-10-24T23:19:22.033Z,12.70
2022-10-24T23:22:31.428Z,12.70
2022-10-24T23:25:18.743Z,12.60
2022-10-24T23:28:13.301Z,12.60
2022-10-24T23:31:00.432Z,12.60
2022-10-24T23:33:46.622Z,12.60
2022-10-24T23:36:34.954Z,12.50
2022-10-24T23:42:15.947Z,12.40
2022-10-24T23:45:02.673Z,12.30
2022-10-24T23:48:04.176Z,12.30
2022-10-24T23:51:24.600Z,12.20
2022-10-24T23:54:25.627Z,12.20
2022-10-24T23:57:17.818Z,12.10
